Petersburg, VA

2:29 PM EDT on April 01, 2015 (GMT -0400)
VADOT | | Change Station
CLOSE
Current Station
Personal Weather Station
Location: Petersburg, VA
Elevation: 42 ft
Nearby Weather Stations

Elev 42 ft 37.23 °N, 77.40 °W | Updated 49 minutes ago

Clear
Clear
57 °F
Feels Like 57 °F
N
3
Wind Variable Wind from SE
Gusts 4.0 mph

Today
High -- | Low -- °F
--% Chance of Precip.
Yesterday
High -- | Low -- °F
Precip. -- in
6:55 AM 7:31 PM
Waxing Gibbous, 93% visible
Pressure 30.14 in
Visibility 10.0 miles
Clouds Clear
Dew Point 23 °F
Humidity 27%
Rainfall in
Snow Depth Not available.
UV 8 out of 12
Pollen 9.80 out of 12
Air Quality Not available.
Flu Activity Not available.
METAR KPTB 011815Z AUTO 01009KT 10SM CLR 16/M07 A3014 RMK AO2 T01591074

More Conditions Fewer Conditions

Pressure 30.14 in
Visibility 10.0 miles
Clouds Clear
Dew Point 23 °F
Humidity 27%
Rainfall in
Snow Depth Not available.
UV 8 out of 12
Pollen 9.80 out of 12
Air Quality Not available.
Flu Activity Not available.
METAR KPTB 011815Z AUTO 01009KT 10SM CLR 16/M07 A3014 RMK AO2 T01591074

More Conditions Fewer Conditions

10-Day Weather Forecast

Almanac

Astronomy

Apr. 01, 2015 Rise Set
Actual Time
Civil Twilight
Nautical Twilight
Astronomical Twilight
Moon
Length of Visible Light
Length of Day
Tomorrow will be .
, % of the Moon is Illuminated

Today's Extremes

State Highs State Lows

Community

WunderPhotos

Upload Photos

1,810,035 photos uploaded!

WunderBlogs® & News

Nearby

Air Quality

  Air Quality AQ Index Pollutant
Not available.

Snow Depth

Station Depth Elevation

Earthquake Activity

City Distance Mag. Time & Date
Minimum magnitude displayed is 2.5.

Coastal Water Temperatures

Place Temperature

Stations

Nearby Weather Stations

Station Location Temp. Windchill Dew Point Humidity Wind Precip. Elev Updated Type